createdAt,value
2023-04-12T00:00:21.277Z,8.80
2023-04-12T00:02:54.509Z,8.80
2023-04-12T00:05:27.405Z,8.80
2023-04-12T00:07:55.087Z,8.80
2023-04-12T00:10:22.532Z,8.80
2023-04-12T00:12:49.718Z,8.80
2023-04-12T00:15:16.667Z,8.80
2023-04-12T00:17:44.840Z,8.70
2023-04-12T00:20:12.951Z,8.70
2023-04-12T00:22:41.884Z,8.70
2023-04-12T00:25:09.815Z,8.70
2023-04-12T00:27:36.868Z,8.70
2023-04-12T00:30:04.287Z,8.70
2023-04-12T00:32:31.925Z,8.70
2023-04-12T00:34:58.836Z,8.70
2023-04-12T00:37:25.925Z,8.70
2023-04-12T00:39:52.818Z,8.70
2023-04-12T00:42:19.709Z,8.70
2023-04-12T00:44:46.792Z,8.70
2023-04-12T00:47:14.018Z,8.70
2023-04-12T00:49:41.526Z,8.70
2023-04-12T00:52:10.168Z,8.70
2023-04-12T00:54:40.384Z,8.70
2023-04-12T00:57:07.339Z,8.70
2023-04-12T00:59:34.270Z,8.70
2023-04-12T01:02:01.998Z,8.70
2023-04-12T01:04:29.297Z,8.70
2023-04-12T01:07:21.872Z,8.70
2023-04-12T01:10:10.071Z,8.70
2023-04-12T01:12:47.670Z,8.70
2023-04-12T01:15:16.355Z,8.70
2023-04-12T01:17:58.403Z,8.70
2023-04-12T01:20:30.859Z,8.70
2023-04-12T01:23:45.795Z,8.70
2023-04-12T01:26:44.353Z,8.70
2023-04-12T01:29:21.223Z,8.70
2023-04-12T01:31:59.265Z,8.70
2023-04-12T01:34:32.514Z,8.70
2023-04-12T01:37:04.720Z,8.70
2023-04-12T01:39:33.564Z,8.70
2023-04-12T01:42:00.956Z,8.70
2023-04-12T01:44:28.048Z,8.70
2023-04-12T01:46:55.383Z,8.80
2023-04-12T01:49:27.743Z,8.80
2023-04-12T01:52:11.951Z,8.80
2023-04-12T01:54:42.208Z,8.80
2023-04-12T01:57:11.033Z,8.80
2023-04-12T01:59:43.564Z,8.90
2023-04-12T02:02:14.008Z,9.00
2023-04-12T02:04:42.121Z,9.00
2023-04-12T02:07:09.649Z,9.00
2023-04-12T02:09:38.579Z,9.10
2023-04-12T02:12:06.721Z,9.10
2023-04-12T02:14:33.687Z,9.20
2023-04-12T02:17:02.584Z,9.20
2023-04-12T02:19:29.509Z,9.30
2023-04-12T02:21:56.374Z,9.30
2023-04-12T02:24:23.496Z,9.20
2023-04-12T02:26:50.400Z,9.30
2023-04-12T02:29:17.768Z,9.30
2023-04-12T02:31:45.223Z,9.30
2023-04-12T02:34:13.453Z,9.30
2023-04-12T02:36:40.472Z,9.30
2023-04-12T02:39:07.878Z,9.20
2023-04-12T02:41:34.934Z,9.20
2023-04-12T02:44:03.628Z,9.20
2023-04-12T02:46:31.054Z,9.20
2023-04-12T02:48:58.357Z,9.20
2023-04-12T02:51:25.284Z,9.20
2023-04-12T02:53:52.138Z,9.20
2023-04-12T02:56:19.352Z,9.20
2023-04-12T02:58:46.465Z,9.20
2023-04-12T03:01:14.937Z,9.20
2023-04-12T03:03:42.025Z,9.20
2023-04-12T03:06:09.602Z,9.10
2023-04-12T03:08:36.481Z,9.20
2023-04-12T03:11:03.345Z,9.10
2023-04-12T03:13:30.248Z,9.10
2023-04-12T03:15:59.994Z,9.10
2023-04-12T03:18:27.085Z,9.00
2023-04-12T03:20:54.089Z,9.00
2023-04-12T03:23:21.227Z,9.00
2023-04-12T03:25:48.161Z,9.00
2023-04-12T03:28:15.069Z,8.90
2023-04-12T03:30:42.503Z,8.90
2023-04-12T03:33:09.610Z,8.90
2023-04-12T03:35:36.499Z,8.80
2023-04-12T03:38:03.469Z,8.80
2023-04-12T03:40:30.393Z,8.70
2023-04-12T03:42:58.826Z,8.70
2023-04-12T03:45:26.928Z,8.70
2023-04-12T03:47:55.056Z,8.70
2023-04-12T03:50:22.567Z,8.70
2023-04-12T03:52:49.496Z,8.60
2023-04-12T03:55:18.464Z,8.60
2023-04-12T03:57:45.509Z,8.60
2023-04-12T04:00:13.560Z,8.50
2023-04-12T04:02:40.620Z,8.50
2023-04-12T04:05:08.141Z,8.50
2023-04-12T04:07:36.680Z,8.40
2023-04-12T04:10:05.719Z,8.40
2023-04-12T04:12:32.639Z,8.30
2023-04-12T04:14:59.570Z,8.30
2023-04-12T04:17:26.484Z,8.30
2023-04-12T04:19:53.458Z,8.30
2023-04-12T04:22:21.738Z,8.30
2023-04-12T04:24:50.294Z,8.40
2023-04-12T04:27:17.370Z,8.40
2023-04-12T04:29:45.598Z,8.40
2023-04-12T04:32:13.348Z,8.40
2023-04-12T04:34:40.344Z,8.40
2023-04-12T04:37:07.629Z,8.40
2023-04-12T04:39:34.561Z,8.50
2023-04-12T04:42:01.506Z,8.50
2023-04-12T04:44:28.534Z,8.50
2023-04-12T04:46:56.751Z,8.50
2023-04-12T04:49:23.678Z,8.40
2023-04-12T04:51:50.617Z,8.50
2023-04-12T04:54:17.509Z,8.50
2023-04-12T04:56:44.421Z,8.50
2023-04-12T04:59:11.341Z,8.50
2023-04-12T05:01:38.522Z,8.50
2023-04-12T05:04:06.027Z,8.50
2023-04-12T05:06:33.630Z,8.50
2023-04-12T05:09:04.118Z,8.50
2023-04-12T05:11:31.137Z,8.50
2023-04-12T05:13:58.521Z,8.50
2023-04-12T05:16:25.702Z,8.50
2023-04-12T05:18:52.619Z,8.50
2023-04-12T05:21:20.008Z,8.50
2023-04-12T05:23:47.866Z,8.50
2023-04-12T05:26:14.884Z,8.50
2023-04-12T05:28:41.767Z,8.50
2023-04-12T05:31:12.107Z,8.50
2023-04-12T05:33:39.461Z,8.50
2023-04-12T05:36:06.858Z,8.50
2023-04-12T05:38:33.758Z,8.50
2023-04-12T05:41:04.294Z,8.40
2023-04-12T05:43:32.413Z,8.40
2023-04-12T05:45:59.652Z,8.40
2023-04-12T05:48:26.647Z,8.40
2023-04-12T05:50:54.836Z,8.40
2023-04-12T05:53:22.227Z,8.40
2023-04-12T05:55:49.122Z,8.40
2023-04-12T05:58:16.108Z,8.40
2023-04-12T06:00:43.113Z,8.40
2023-04-12T06:03:11.743Z,8.40
2023-04-12T06:05:39.313Z,8.40
2023-04-12T06:08:06.621Z,8.40
2023-04-12T06:10:33.542Z,8.30
2023-04-12T06:13:00.539Z,8.20
2023-04-12T06:15:27.504Z,8.20
2023-04-12T06:17:54.505Z,8.10
2023-04-12T06:20:21.710Z,8.10
2023-04-12T06:22:48.788Z,8.00
2023-04-12T06:25:16.662Z,8.00
2023-04-12T06:27:44.024Z,8.00
2023-04-12T06:30:11.656Z,8.00
2023-04-12T06:32:39.099Z,7.90
2023-04-12T06:35:06.535Z,7.90
2023-04-12T06:37:33.473Z,7.90
2023-04-12T06:40:00.533Z,7.90
2023-04-12T06:42:27.485Z,7.90
2023-04-12T06:44:54.459Z,7.90
2023-04-12T06:47:23.108Z,7.90
2023-04-12T06:49:54.783Z,7.90
2023-04-12T06:52:26.769Z,7.90
2023-04-12T06:54:56.209Z,7.90
2023-04-12T06:57:23.690Z,8.00
2023-04-12T06:59:50.590Z,8.00
2023-04-12T07:02:18.614Z,8.00
2023-04-12T07:04:45.846Z,8.00
2023-04-12T07:07:13.587Z,8.00
2023-04-12T07:09:40.525Z,8.00
2023-04-12T07:12:07.756Z,8.00
2023-04-12T07:14:34.778Z,7.90
2023-04-12T07:17:02.094Z,7.90
2023-04-12T07:19:31.350Z,8.00
2023-04-12T07:21:58.807Z,8.00
2023-04-12T07:24:25.754Z,8.00
2023-04-12T07:26:56.271Z,8.00
2023-04-12T07:29:23.422Z,8.00
2023-04-12T07:31:50.891Z,8.10
2023-04-12T07:34:18.402Z,8.10
2023-04-12T07:36:45.535Z,8.10
2023-04-12T07:39:12.703Z,8.20
2023-04-12T07:41:40.938Z,8.20
2023-04-12T07:44:07.833Z,8.20
2023-04-12T07:46:34.865Z,8.10
2023-04-12T07:49:01.852Z,8.20
2023-04-12T07:51:28.920Z,8.20
2023-04-12T07:53:56.212Z,8.30
2023-04-12T07:56:23.394Z,8.30
2023-04-12T07:58:50.406Z,8.30
2023-04-12T08:01:17.317Z,8.40
2023-04-12T08:04:05.070Z,8.40
2023-04-12T08:06:34.470Z,8.50
2023-04-12T08:09:01.493Z,8.50
2023-04-12T08:11:28.479Z,8.40
2023-04-12T08:13:55.885Z,8.50
2023-04-12T08:16:26.253Z,8.50
2023-04-12T08:18:53.326Z,8.50
2023-04-12T08:21:20.440Z,8.60
2023-04-12T08:23:47.385Z,8.70
2023-04-12T08:26:14.412Z,8.80
2023-04-12T08:28:41.301Z,9.00
2023-04-12T08:31:09.282Z,9.10
2023-04-12T08:33:36.686Z,9.20
2023-04-12T08:36:04.407Z,9.30
2023-04-12T08:38:44.936Z,9.30
2023-04-12T08:41:14.228Z,9.30
2023-04-12T08:43:47.484Z,9.40
2023-04-12T08:46:18.262Z,9.40
2023-04-12T08:48:47.274Z,9.40
2023-04-12T08:51:16.926Z,9.40
2023-04-12T08:53:44.421Z,9.40
2023-04-12T08:56:13.548Z,9.50
2023-04-12T08:58:41.941Z,9.40
2023-04-12T09:01:14.275Z,9.40
2023-04-12T09:03:45.174Z,9.40
2023-04-12T09:06:13.465Z,9.40
2023-04-12T09:08:56.915Z,9.50
2023-04-12T09:11:26.056Z,9.60
2023-04-12T09:13:58.408Z,9.80
2023-04-12T09:16:39.847Z,10.00
2023-04-12T09:19:07.268Z,10.10
2023-04-12T09:21:35.644Z,10.30
2023-04-12T09:24:14.932Z,10.50
2023-04-12T09:26:42.490Z,10.70
2023-04-12T09:29:26.877Z,10.80
2023-04-12T09:32:05.253Z,10.90
2023-04-12T09:34:33.805Z,10.90
2023-04-12T09:37:23.830Z,10.90
2023-04-12T09:40:10.808Z,10.90
2023-04-12T09:42:53.840Z,11.00
2023-04-12T09:45:24.095Z,10.90
2023-04-12T09:47:51.487Z,11.00
2023-04-12T09:50:28.623Z,11.00
2023-04-12T09:52:56.852Z,11.00
2023-04-12T09:55:25.863Z,11.00
2023-04-12T09:57:54.298Z,11.00
2023-04-12T10:00:23.865Z,10.90
2023-04-12T10:02:53.034Z,10.90
2023-04-12T10:05:23.427Z,10.80
2023-04-12T10:07:50.893Z,10.70
2023-04-12T10:10:22.263Z,10.60
2023-04-12T10:12:50.513Z,10.70
2023-04-12T10:15:21.431Z,10.70
2023-04-12T10:17:57.898Z,10.70
2023-04-12T10:20:28.979Z,10.90
2023-04-12T10:22:57.919Z,11.20
2023-04-12T10:25:27.042Z,11.50
2023-04-12T10:27:57.418Z,11.80
2023-04-12T10:30:32.382Z,12.00
2023-04-12T10:33:14.697Z,12.00
2023-04-12T10:36:08.800Z,12.10
2023-04-12T10:39:08.760Z,12.00
2023-04-12T10:41:35.965Z,11.90
2023-04-12T10:44:25.957Z,11.70
2023-04-12T10:46:53.062Z,11.70
2023-04-12T10:49:20.449Z,11.60
2023-04-12T10:52:02.950Z,11.80
2023-04-12T10:54:30.258Z,12.10
2023-04-12T10:56:57.633Z,12.20
2023-04-12T10:59:34.127Z,12.40
2023-04-12T11:02:12.245Z,12.60
2023-04-12T11:04:59.622Z,12.70
2023-04-12T11:07:40.350Z,12.90
2023-04-12T11:10:15.034Z,13.10
2023-04-12T11:12:48.640Z,13.00
2023-04-12T11:15:16.224Z,12.80
2023-04-12T11:18:06.388Z,12.70
2023-04-12T11:20:34.458Z,12.60
2023-04-12T11:23:01.594Z,12.70
2023-04-12T11:25:31.251Z,12.70
2023-04-12T11:28:00.558Z,12.60
2023-04-12T11:30:31.273Z,12.60
2023-04-12T11:33:04.527Z,12.50
2023-04-12T11:35:33.225Z,12.50
2023-04-12T11:38:01.441Z,12.60
2023-04-12T11:40:28.539Z,12.50
2023-04-12T11:42:57.767Z,12.50
2023-04-12T11:45:24.938Z,12.40
2023-04-12T11:47:52.340Z,12.30
2023-04-12T11:50:32.562Z,12.10
2023-04-12T11:53:13.409Z,12.00
2023-04-12T11:55:40.391Z,12.00
2023-04-12T11:58:07.587Z,12.20
2023-04-12T12:00:34.897Z,12.30
2023-04-12T12:03:07.141Z,12.30
2023-04-12T12:05:39.711Z,12.20
2023-04-12T12:08:09.072Z,12.10
2023-04-12T12:10:46.826Z,11.90
2023-04-12T12:13:23.155Z,11.80
2023-04-12T12:15:52.893Z,11.60
2023-04-12T12:18:19.904Z,11.30
2023-04-12T12:20:51.510Z,11.20
2023-04-12T12:23:31.572Z,11.00
2023-04-12T12:26:14.388Z,11.10
2023-04-12T12:28:53.273Z,11.30
2023-04-12T12:31:26.810Z,11.80
2023-04-12T12:34:08.389Z,12.00
2023-04-12T12:36:39.878Z,12.20
2023-04-12T12:39:16.151Z,12.20
2023-04-12T12:41:43.266Z,12.30
2023-04-12T12:44:12.325Z,12.40
2023-04-12T12:49:09.143Z,12.80
2023-04-12T12:51:36.622Z,13.00
2023-04-12T12:54:03.710Z,12.90
2023-04-12T12:56:30.697Z,12.80
2023-04-12T12:58:57.833Z,12.60
2023-04-12T13:01:24.946Z,12.30
2023-04-12T13:03:52.291Z,11.90
2023-04-12T13:06:19.532Z,11.60
2023-04-12T13:08:46.866Z,11.50
2023-04-12T13:11:14.354Z,11.20
2023-04-12T13:13:42.250Z,11.00
2023-04-12T13:16:09.453Z,11.10
2023-04-12T13:18:36.427Z,11.30
2023-04-12T13:21:03.513Z,11.50
2023-04-12T13:23:32.725Z,11.80
2023-04-12T13:25:59.683Z,12.20
2023-04-12T13:28:26.584Z,12.50
2023-04-12T13:30:53.981Z,12.70
2023-04-12T13:33:22.170Z,12.90
2023-04-12T13:35:49.413Z,13.00
2023-04-12T13:38:16.262Z,13.20
2023-04-12T13:40:43.245Z,13.30
2023-04-12T13:43:10.566Z,13.40
2023-04-12T13:45:37.540Z,13.20
2023-04-12T13:48:04.696Z,13.20
2023-04-12T13:50:31.733Z,13.10
2023-04-12T13:52:58.698Z,13.00
2023-04-12T13:55:25.653Z,13.10
2023-04-12T13:57:52.586Z,13.00
2023-04-12T14:00:20.504Z,13.10
2023-04-12T14:02:47.680Z,13.20
2023-04-12T14:05:15.298Z,13.30
2023-04-12T14:07:42.375Z,13.40
2023-04-12T14:10:10.422Z,13.40
2023-04-12T14:12:37.433Z,13.40
2023-04-12T14:15:06.031Z,13.40
2023-04-12T14:17:33.249Z,13.30
2023-04-12T14:20:00.687Z,13.20
2023-04-12T14:22:28.186Z,13.10
2023-04-12T14:24:55.304Z,13.30
2023-04-12T14:27:22.629Z,13.30
2023-04-12T14:29:49.771Z,13.30
2023-04-12T14:32:17.252Z,13.40
2023-04-12T14:34:45.010Z,13.60
2023-04-12T14:37:12.078Z,13.70
2023-04-12T14:39:39.010Z,13.80
2023-04-12T14:42:06.236Z,13.80
2023-04-12T14:44:33.260Z,13.70
2023-04-12T14:47:00.199Z,13.80
2023-04-12T14:49:29.423Z,13.80
2023-04-12T14:51:57.841Z,13.80
2023-04-12T14:54:24.887Z,13.80
2023-04-12T14:56:55.813Z,13.90
2023-04-12T14:59:23.521Z,13.90
2023-04-12T15:01:53.033Z,13.90
2023-04-12T15:04:20.481Z,13.80
2023-04-12T15:06:47.652Z,13.60
2023-04-12T15:09:15.827Z,13.50
2023-04-12T15:11:46.543Z,13.50
2023-04-12T15:14:18.195Z,13.50
2023-04-12T15:16:46.560Z,13.30
2023-04-12T15:19:18.703Z,12.90
2023-04-12T15:21:47.633Z,12.10
2023-04-12T15:24:14.690Z,11.50
2023-04-12T15:26:41.738Z,11.20
2023-04-12T15:29:09.551Z,11.10
2023-04-12T15:31:36.895Z,10.90
2023-04-12T15:34:04.064Z,10.80
2023-04-12T15:36:36.595Z,10.70
2023-04-12T15:39:05.093Z,10.50
2023-04-12T15:41:38.406Z,10.40
2023-04-12T15:44:06.992Z,10.30
2023-04-12T15:46:34.875Z,10.10
2023-04-12T15:49:02.299Z,9.90
2023-04-12T15:51:35.808Z,9.70
2023-04-12T15:54:02.989Z,9.70
2023-04-12T15:56:31.524Z,9.60
2023-04-12T15:59:00.589Z,9.60
2023-04-12T16:01:28.371Z,9.60
2023-04-12T16:03:55.711Z,9.50
2023-04-12T16:06:25.270Z,9.40
2023-04-12T16:08:57.701Z,9.40
2023-04-12T16:11:24.908Z,9.50
2023-04-12T16:13:53.021Z,9.40
2023-04-12T16:16:22.762Z,9.50
2023-04-12T16:18:49.961Z,9.40
2023-04-12T16:21:20.299Z,9.40
2023-04-12T16:23:48.421Z,9.40
2023-04-12T16:26:22.734Z,9.40
2023-04-12T16:28:51.795Z,9.50
2023-04-12T16:31:21.455Z,9.50
2023-04-12T16:33:52.441Z,9.50
2023-04-12T16:36:23.830Z,9.60
2023-04-12T16:38:59.486Z,9.70
2023-04-12T16:41:27.004Z,9.80
2023-04-12T16:43:55.185Z,9.90
2023-04-12T16:46:22.513Z,9.90
2023-04-12T16:48:49.669Z,9.90
2023-04-12T16:51:17.073Z,9.90
2023-04-12T16:53:44.195Z,9.80
2023-04-12T16:56:11.141Z,9.70
2023-04-12T16:58:38.118Z,9.60
2023-04-12T17:01:05.414Z,9.50
2023-04-12T17:03:32.581Z,9.40
2023-04-12T17:06:00.018Z,9.40
2023-04-12T17:08:29.453Z,9.30
2023-04-12T17:10:56.626Z,9.20
2023-04-12T17:13:23.752Z,9.10
2023-04-12T17:15:50.821Z,9.10
2023-04-12T17:18:18.113Z,9.10
2023-04-12T17:20:45.507Z,9.10
2023-04-12T17:23:13.723Z,9.10
2023-04-12T17:25:43.612Z,9.10
2023-04-12T17:28:10.653Z,9.10
2023-04-12T17:30:41.549Z,9.10
2023-04-12T17:33:09.139Z,9.20
2023-04-12T17:36:11.823Z,9.20
2023-04-12T17:38:42.583Z,9.20
2023-04-12T17:41:13.152Z,9.30
2023-04-12T17:43:41.375Z,9.30
2023-04-12T17:46:10.254Z,9.40
2023-04-12T17:48:46.038Z,9.40
2023-04-12T17:51:13.213Z,9.30
2023-04-12T17:53:40.427Z,9.10
2023-04-12T17:56:08.371Z,8.90
2023-04-12T17:58:39.167Z,8.80
2023-04-12T18:01:06.306Z,8.60
2023-04-12T18:03:34.539Z,8.50
2023-04-12T18:06:04.272Z,8.40
2023-04-12T18:08:32.292Z,8.40
2023-04-12T18:11:00.906Z,8.20
2023-04-12T18:13:28.380Z,8.10
2023-04-12T18:15:55.761Z,8.00
2023-04-12T18:18:22.864Z,7.80
2023-04-12T18:20:50.303Z,7.70
2023-04-12T18:23:17.440Z,7.60
2023-04-12T18:25:45.486Z,7.50
2023-04-12T18:28:12.647Z,7.40
2023-04-12T18:30:41.574Z,7.20
2023-04-12T18:33:11.328Z,7.10
2023-04-12T18:35:40.187Z,7.00
2023-04-12T18:38:07.760Z,6.90
2023-04-12T18:40:38.495Z,6.90
2023-04-12T18:43:05.587Z,6.80
2023-04-12T18:45:32.687Z,6.70
2023-04-12T18:48:00.536Z,6.60
2023-04-12T18:50:27.785Z,6.50
2023-04-12T18:52:54.689Z,6.50
2023-04-12T18:55:21.628Z,6.40
2023-04-12T18:57:49.215Z,6.40
2023-04-12T19:00:16.960Z,6.40
2023-04-12T19:02:44.125Z,6.30
2023-04-12T19:05:11.814Z,6.20
2023-04-12T19:07:38.793Z,6.10
2023-04-12T19:10:07.137Z,6.10
2023-04-12T19:12:34.167Z,6.10
2023-04-12T19:15:01.071Z,6.10
2023-04-12T19:17:28.219Z,6.10
2023-04-12T19:19:55.633Z,6.20
2023-04-12T19:22:26.453Z,6.10
2023-04-12T19:24:55.130Z,6.10
2023-04-12T19:27:23.217Z,6.10
2023-04-12T19:29:51.882Z,6.10
2023-04-12T19:32:19.315Z,6.10
2023-04-12T19:34:47.514Z,6.10
2023-04-12T19:37:14.643Z,6.10
2023-04-12T19:39:41.885Z,6.00
2023-04-12T19:42:09.508Z,6.00
2023-04-12T19:44:39.022Z,6.00
2023-04-12T19:47:09.528Z,6.00
2023-04-12T19:49:37.530Z,6.00
2023-04-12T19:52:05.727Z,6.10
2023-04-12T19:54:33.554Z,6.00
2023-04-12T19:57:00.573Z,6.00
2023-04-12T19:59:30.939Z,6.00
2023-04-12T20:01:58.763Z,6.00
2023-04-12T20:04:26.717Z,6.00
2023-04-12T20:06:53.863Z,6.00
2023-04-12T20:09:25.449Z,5.90
2023-04-12T20:11:52.843Z,5.80
2023-04-12T20:14:19.909Z,5.70
2023-04-12T20:16:47.587Z,5.60
2023-04-12T20:19:16.476Z,5.50
2023-04-12T20:21:44.228Z,5.50
2023-04-12T20:24:12.556Z,5.60
2023-04-12T20:26:39.554Z,5.60
2023-04-12T20:29:06.769Z,5.60
2023-04-12T20:31:34.346Z,5.60
2023-04-12T20:34:01.494Z,5.50
2023-04-12T20:36:29.716Z,5.60
2023-04-12T20:38:57.271Z,5.70
2023-04-12T20:41:24.383Z,5.70
2023-04-12T20:43:51.304Z,5.70
2023-04-12T20:46:25.761Z,5.80
2023-04-12T20:48:56.715Z,5.80
2023-04-12T20:51:24.252Z,5.80
2023-04-12T20:53:51.844Z,5.90
2023-04-12T20:56:21.485Z,6.00
2023-04-12T20:58:49.975Z,6.00
2023-04-12T21:01:17.157Z,6.10
2023-04-12T21:03:44.398Z,6.10
2023-04-12T21:06:11.577Z,6.00
2023-04-12T21:08:39.185Z,6.00
2023-04-12T21:11:06.563Z,6.00
2023-04-12T21:13:34.605Z,6.00
2023-04-12T21:16:05.476Z,6.10
2023-04-12T21:18:34.390Z,6.10
2023-04-12T21:21:01.952Z,6.10
2023-04-12T21:23:29.174Z,6.20
2023-04-12T21:25:56.213Z,6.30
2023-04-12T21:28:23.165Z,6.30
2023-04-12T21:30:55.369Z,6.40
2023-04-12T21:33:28.787Z,6.40
2023-04-12T21:35:58.679Z,6.40
2023-04-12T21:38:28.120Z,6.40
2023-04-12T21:40:57.456Z,6.40
2023-04-12T21:43:24.429Z,6.50
2023-04-12T21:45:51.766Z,6.60
2023-04-12T21:48:18.794Z,6.60
2023-04-12T21:50:45.733Z,6.70
2023-04-12T21:53:12.639Z,6.70
2023-04-12T21:55:39.635Z,6.70
2023-04-12T21:58:07.076Z,6.60
2023-04-12T22:00:35.185Z,6.50
2023-04-12T22:03:02.436Z,6.40
2023-04-12T22:05:32.977Z,6.30
2023-04-12T22:08:00.072Z,6.20
2023-04-12T22:10:27.528Z,6.20
2023-04-12T22:12:54.483Z,6.10
2023-04-12T22:15:21.479Z,6.00
2023-04-12T22:17:48.542Z,5.90
2023-04-12T22:20:15.487Z,5.90
2023-04-12T22:22:42.894Z,5.80
2023-04-12T22:25:12.747Z,5.80
2023-04-12T22:27:40.281Z,5.90
2023-04-12T22:30:11.559Z,5.80
2023-04-12T22:32:39.679Z,5.80
2023-04-12T22:35:09.070Z,5.70
2023-04-12T22:37:45.652Z,5.70
2023-04-12T22:40:13.609Z,5.70
2023-04-12T22:42:47.532Z,5.60
2023-04-12T22:45:16.103Z,5.50
2023-04-12T22:47:53.611Z,5.50
2023-04-12T22:50:20.738Z,5.50
2023-04-12T22:52:50.113Z,5.60
2023-04-12T22:55:20.637Z,5.70
2023-04-12T22:57:47.578Z,5.80
2023-04-12T23:00:22.078Z,6.00
2023-04-12T23:02:50.472Z,6.10
2023-04-12T23:05:17.647Z,6.10
2023-04-12T23:07:44.849Z,6.00
2023-04-12T23:10:12.493Z,6.10
2023-04-12T23:12:39.529Z,6.10
2023-04-12T23:15:07.149Z,6.20
2023-04-12T23:17:34.305Z,6.30
2023-04-12T23:20:10.176Z,6.40
2023-04-12T23:22:57.472Z,6.40
2023-04-12T23:25:39.812Z,6.30
2023-04-12T23:28:13.373Z,6.20
2023-04-12T23:30:49.540Z,6.10
2023-04-12T23:33:27.707Z,6.00
2023-04-12T23:35:58.739Z,6.00
2023-04-12T23:38:39.310Z,5.90
2023-04-12T23:41:09.316Z,5.90
2023-04-12T23:43:37.074Z,5.90
2023-04-12T23:46:09.710Z,5.80
2023-04-12T23:48:37.622Z,5.70
2023-04-12T23:51:07.342Z,5.70
2023-04-12T23:53:41.587Z,5.60
2023-04-12T23:56:12.408Z,5.60
2023-04-12T23:58:39.546Z,5.50
